Time;durP1;ratioP1;P1;durP2;ratioP2;P2;SDS_P1;SDS_P2;PMS_P1;PMS_P2;Temp;Humidity;BMP_temperature;BMP_pressure;BME280_temperature;BME280_humidity;BME280_pressure;Samples;Min_cycle;Max_cycle;Signal;HPM_P1;HPM_P2
2022/07/05 05:13:35;;;;;;;12.20;6.80;;;;;;;;;;5475737;23;20352;-63
2022/07/05 05:16:02;;;;;;;13.77;7.65;;;;;;;;;;4934303;29;20090;-64
2022/07/05 05:18:28;;;;;;;12.60;6.80;;;;;;;;;;4934072;29;20043;-63
2022/07/05 05:20:54;;;;;;;10.95;6.53;;;;;;;;;;4934156;29;20036;-64
2022/07/05 05:23:22;;;;;;;13.05;6.90;;;;;;;;;;4934041;29;20042;-64
2022/07/05 05:25:48;;;;;;;10.70;7.10;;;;;;;;;;4934184;29;20487;-65
2022/07/05 05:28:14;;;;;;;14.52;7.30;;;;;;;;;;4933811;29;20115;-63
2022/07/05 05:30:40;;;;;;;15.10;7.85;;;;;;;;;;4934107;29;20024;-64
2022/07/05 05:33:06;;;;;;;10.60;6.88;;;;;;;;;;4933946;29;20032;-64
2022/07/05 05:35:32;;;;;;;12.55;6.00;;;;;;;;;;4933950;29;20024;-62
2022/07/05 05:37:58;;;;;;;11.00;6.00;;;;;;;;;;4933555;29;20031;-62
2022/07/05 05:40:25;;;;;;;8.65;5.85;;;;;;;;;;4933546;29;20032;-64
2022/07/05 05:42:52;;;;;;;11.25;5.70;;;;;;;;;;4933451;29;20365;-62
2022/07/05 05:45:18;;;;;;;12.15;6.15;;;;;;;;;;4933841;29;20479;-64
2022/07/05 05:47:48;;;;;;;11.57;5.57;;;;;;;;;;4933648;29;20038;-65
2022/07/05 05:50:14;;;;;;;13.73;6.22;;;;;;;;;;4933534;29;20020;-64
2022/07/05 05:52:40;;;;;;;13.80;5.82;;;;;;;;;;4933778;29;20375;-66
2022/07/05 05:55:07;;;;;;;8.60;5.80;;;;;;;;;;4934132;29;20035;-64
2022/07/05 05:57:35;;;;;;;12.48;6.18;;;;;;;;;;4933690;29;20028;-62
2022/07/05 06:00:01;;;;;;;12.18;6.22;;;;;;;;;;4933893;29;20087;-64
2022/07/05 06:02:27;;;;;;;13.27;6.82;;;;;;;;;;4933528;29;20491;-66
2022/07/05 06:04:53;;;;;;;12.57;6.55;;;;;;;;;;4916243;29;20436;-63
2022/07/05 06:07:19;;;;;;;11.73;6.20;;;;;;;;;;4933343;29;20032;-63
2022/07/05 06:09:45;;;;;;;14.25;6.40;;;;;;;;;;4933646;29;20122;-62
2022/07/05 06:12:11;;;;;;;12.43;6.55;;;;;;;;;;4933355;29;20036;-65
2022/07/05 06:14:37;;;;;;;11.65;5.63;;;;;;;;;;4923315;29;20052;-64
2022/07/05 06:17:03;;;;;;;11.63;6.32;;;;;;;;;;4897437;29;20033;-62
2022/07/05 06:19:29;;;;;;;11.25;5.93;;;;;;;;;;4914354;29;20020;-61
2022/07/05 06:21:55;;;;;;;11.55;5.32;;;;;;;;;;4914110;29;20375;-61
2022/07/05 06:24:21;;;;;;;10.38;5.43;;;;;;;;;;4915091;29;20036;-62
2022/07/05 06:26:47;;;;;;;9.50;5.28;;;;;;;;;;4917833;29;20030;-62
2022/07/05 06:29:13;;;;;;;7.72;4.40;;;;;;;;;;4917812;29;20032;-61
2022/07/05 06:31:39;;;;;;;10.98;5.30;;;;;;;;;;4917695;29;20076;-64
2022/07/05 06:34:05;;;;;;;11.20;3.67;;;;;;;;;;4917559;29;20024;-60
2022/07/05 06:36:31;;;;;;;8.25;3.97;;;;;;;;;;4917277;29;20449;-64
2022/07/05 06:38:57;;;;;;;10.05;3.00;;;;;;;;;;4917345;29;20384;-67
2022/07/05 06:41:23;;;;;;;16.50;4.45;;;;;;;;;;4917535;29;20032;-66
2022/07/05 06:43:49;;;;;;;16.80;4.05;;;;;;;;;;4917547;29;20036;-66
2022/07/05 06:46:15;;;;;;;26.85;5.18;;;;;;;;;;4917338;29;20123;-66
2022/07/05 06:48:41;;;;;;;55.53;8.27;;;;;;;;;;4917796;29;20111;-67
2022/07/05 06:51:07;;;;;;;13.98;3.33;;;;;;;;;;4917367;29;20035;-70
2022/07/05 06:53:33;;;;;;;21.77;4.18;;;;;;;;;;4930929;29;20133;-67
2022/07/05 06:55:59;;;;;;;65.53;9.68;;;;;;;;;;4924415;29;20063;-67
2022/07/05 06:58:25;;;;;;;50.40;8.10;;;;;;;;;;4921266;29;20068;-65
2022/07/05 07:00:52;;;;;;;47.08;6.70;;;;;;;;;;4919264;29;20039;-67
2022/07/05 07:03:18;;;;;;;35.10;5.82;;;;;;;;;;4925678;29;20410;-64
2022/07/05 07:05:44;;;;;;;24.58;5.15;;;;;;;;;;4924252;29;20399;-65
2022/07/05 07:10:54;;;;;;;53.55;8.55;;;;;;;;;;4922212;29;20041;-64
2022/07/05 07:13:20;;;;;;;23.65;5.03;;;;;;;;;;4923516;29;20111;-65
2022/07/05 07:15:47;;;;;;;40.47;7.53;;;;;;;;;;4919424;29;20051;-67
2022/07/05 07:18:15;;;;;;;22.55;4.88;;;;;;;;;;4926233;29;20032;-66
2022/07/05 07:20:41;;;;;;;16.67;4.28;;;;;;;;;;4924503;29;20032;-69
2022/07/05 07:23:07;;;;;;;23.70;5.53;;;;;;;;;;4924344;29;20032;-69
2022/07/05 07:25:34;;;;;;;13.20;3.55;;;;;;;;;;4928433;29;20031;-68
2022/07/05 07:28:00;;;;;;;20.80;4.28;;;;;;;;;;4921072;29;20472;-69
2022/07/05 07:30:26;;;;;;;12.65;3.25;;;;;;;;;;4923748;29;20468;-65
2022/07/05 07:32:53;;;;;;;9.90;2.70;;;;;;;;;;4925250;29;20384;-66
2022/07/05 07:35:19;;;;;;;11.27;3.35;;;;;;;;;;4924550;29;20032;-64
2022/07/05 07:37:45;;;;;;;26.67;4.25;;;;;;;;;;4924417;29;20066;-67
2022/07/05 07:40:11;;;;;;;6.72;2.50;;;;;;;;;;4923737;29;20036;-66
2022/07/05 07:42:37;;;;;;;7.57;2.45;;;;;;;;;;4931397;29;20158;-65
2022/07/05 07:45:04;;;;;;;7.60;2.20;;;;;;;;;;4935058;29;20032;-69
2022/07/05 07:47:31;;;;;;;18.05;4.00;;;;;;;;;;4935481;29;20042;-66
2022/07/05 07:49:57;;;;;;;5.80;2.25;;;;;;;;;;4935226;29;20020;-66
2022/07/05 07:52:23;;;;;;;12.93;2.72;;;;;;;;;;4935264;29;20038;-65
2022/07/05 07:54:49;;;;;;;21.15;4.55;;;;;;;;;;4934730;29;20027;-66
2022/07/05 07:57:15;;;;;;;27.20;5.43;;;;;;;;;;4935336;29;20035;-69
2022/07/05 07:59:41;;;;;;;35.20;5.30;;;;;;;;;;4935048;29;20020;-68
2022/07/05 08:02:07;;;;;;;15.75;3.45;;;;;;;;;;4935237;29;20392;-64
2022/07/05 08:04:33;;;;;;;30.65;4.47;;;;;;;;;;4935138;29;20528;-68
2022/07/05 08:06:59;;;;;;;5.80;2.28;;;;;;;;;;4934847;29;20115;-65
2022/07/05 08:09:25;;;;;;;12.55;2.83;;;;;;;;;;4935174;29;20498;-67
2022/07/05 08:11:51;;;;;;;29.80;5.63;;;;;;;;;;4934900;29;20057;-70
2022/07/05 08:14:18;;;;;;;10.27;3.25;;;;;;;;;;4934643;29;20487;-67
2022/07/05 08:16:46;;;;;;;15.88;4.68;;;;;;;;;;4923493;29;20107;-67
2022/07/05 08:21:57;;;;;;;59.65;8.80;;;;;;;;;;4915586;29;20154;-65
2022/07/05 08:24:23;;;;;;;41.92;6.10;;;;;;;;;;4915663;29;20027;-66
2022/07/05 08:26:49;;;;;;;67.72;10.63;;;;;;;;;;4915690;29;20043;-65
2022/07/05 08:29:15;;;;;;;98.72;12.70;;;;;;;;;;4915725;29;20027;-66
2022/07/05 08:31:43;;;;;;;60.70;8.77;;;;;;;;;;4915862;29;20400;-65
2022/07/05 08:34:10;;;;;;;21.42;9.20;;;;;;;;;;4915625;29;20416;-67
2022/07/05 08:36:36;;;;;;;77.05;12.15;;;;;;;;;;4915421;29;20115;-66
2022/07/05 08:39:03;;;;;;;26.02;6.18;;;;;;;;;;4915539;29;20029;-65
2022/07/05 08:41:29;;;;;;;70.35;11.57;;;;;;;;;;4915347;29;20139;-69
2022/07/05 08:43:56;;;;;;;43.22;9.18;;;;;;;;;;4915253;29;20036;-66
2022/07/05 08:46:23;;;;;;;69.10;11.43;;;;;;;;;;4915610;29;20040;-66
2022/07/05 08:48:51;;;;;;;48.58;8.75;;;;;;;;;;4914793;29;20385;-65
2022/07/05 08:51:22;;;;;;;41.00;7.50;;;;;;;;;;4914847;29;20036;-66
2022/07/05 08:53:49;;;;;;;76.38;11.75;;;;;;;;;;4915286;29;20111;-66
2022/07/05 08:56:15;;;;;;;23.17;5.28;;;;;;;;;;4915171;29;20032;-70
2022/07/05 08:58:42;;;;;;;14.27;3.67;;;;;;;;;;4914696;29;20039;-68
2022/07/05 09:01:09;;;;;;;8.10;3.42;;;;;;;;;;4914915;29;20578;-66
2022/07/05 09:03:38;;;;;;;52.10;10.00;;;;;;;;;;4915087;29;20064;-64
2022/07/05 09:06:07;;;;;;;14.68;3.92;;;;;;;;;;4914915;29;20491;-66
2022/07/05 09:08:38;;;;;;;36.60;7.88;;;;;;;;;;4915135;29;20044;-67
2022/07/05 09:11:05;;;;;;;61.88;9.38;;;;;;;;;;4915369;29;20071;-66
2022/07/05 09:13:34;;;;;;;16.30;4.65;;;;;;;;;;4914783;29;20038;-67
2022/07/05 09:16:00;;;;;;;37.67;7.30;;;;;;;;;;4915163;29;20048;-71
2022/07/05 09:18:40;;;;;;;19.42;4.00;;;;;;;;;;4915215;29;20054;-69
2022/07/05 09:21:12;;;;;;;28.73;5.75;;;;;;;;;;4914784;29;20040;-68
2022/07/05 09:23:38;;;;;;;10.40;3.58;;;;;;;;;;4913797;29;20071;-66
2022/07/05 09:26:04;;;;;;;38.17;6.75;;;;;;;;;;4915041;29;20032;-66
2022/07/05 09:28:30;;;;;;;40.70;7.00;;;;;;;;;;4914814;29;20039;-67
2022/07/05 09:30:56;;;;;;;36.47;6.18;;;;;;;;;;4915259;29;20024;-66
2022/07/05 09:33:22;;;;;;;41.42;8.05;;;;;;;;;;4914834;29;20115;-64
2022/07/05 09:35:59;;;;;;;29.58;6.30;;;;;;;;;;4914607;29;20063;-67
2022/07/05 09:38:25;;;;;;;15.88;5.00;;;;;;;;;;4914745;29;20051;-69
2022/07/05 09:40:53;;;;;;;12.93;4.43;;;;;;;;;;4914244;29;20374;-67
2022/07/05 09:43:23;;;;;;;39.00;8.88;;;;;;;;;;4913632;29;20519;-66
2022/07/05 09:46:02;;;;;;;26.55;7.07;;;;;;;;;;4914412;29;20115;-70
2022/07/05 09:48:29;;;;;;;12.85;3.83;;;;;;;;;;4914622;29;20033;-69
2022/07/05 09:51:12;;;;;;;21.42;5.22;;;;;;;;;;4914685;29;20028;-67
2022/07/05 09:53:50;;;;;;;38.10;7.88;;;;;;;;;;4914434;29;20024;-66
2022/07/05 09:56:19;;;;;;;35.70;7.82;;;;;;;;;;4914442;29;20028;-68
2022/07/05 09:58:45;;;;;;;49.30;8.38;;;;;;;;;;4897473;29;20044;-70
2022/07/05 10:01:28;;;;;;;44.22;10.25;;;;;;;;;;4918151;29;20103;-67
2022/07/05 10:03:54;;;;;;;63.33;11.70;;;;;;;;;;4918349;29;20055;-69
2022/07/05 10:06:23;;;;;;;54.92;10.55;;;;;;;;;;4918150;29;20036;-68
2022/07/05 10:08:52;;;;;;;52.58;9.07;;;;;;;;;;4918344;29;20030;-69
2022/07/05 10:11:18;;;;;;;74.57;11.93;;;;;;;;;;4918404;29;20056;-72
2022/07/05 10:13:46;;;;;;;97.65;14.00;;;;;;;;;;4917839;29;20056;-70
2022/07/05 10:16:12;;;;;;;148.65;19.00;;;;;;;;;;4918388;29;20135;-72
2022/07/05 10:18:39;;;;;;;167.43;19.02;;;;;;;;;;4918359;29;20028;-77
2022/07/05 10:21:06;;;;;;;294.10;31.52;;;;;;;;;;4917744;29;20119;-73
2022/07/05 10:23:32;;;;;;;161.95;18.58;;;;;;;;;;4918015;29;20809;-70
2022/07/05 10:25:58;;;;;;;413.75;40.50;;;;;;;;;;4918216;29;20036;-79
2022/07/05 10:28:24;;;;;;;165.88;19.25;;;;;;;;;;4917791;29;20079;-71
2022/07/05 10:30:51;;;;;;;284.40;31.58;;;;;;;;;;4917448;29;20053;-70
2022/07/05 10:33:25;;;;;;;403.77;41.40;;;;;;;;;;4917774;29;20120;-71
2022/07/05 10:35:51;;;;;;;281.17;31.85;;;;;;;;;;4917415;29;20046;-71
2022/07/05 10:38:17;;;;;;;247.13;28.17;;;;;;;;;;4917569;29;20118;-71
2022/07/05 10:40:47;;;;;;;267.80;31.67;;;;;;;;;;4917774;29;20132;-71
2022/07/05 10:43:14;;;;;;;309.73;34.85;;;;;;;;;;4917565;29;20044;-70
2022/07/05 10:45:43;;;;;;;152.02;20.35;;;;;;;;;;4917576;29;20051;-72
2022/07/05 10:48:12;;;;;;;396.88;49.38;;;;;;;;;;4917581;29;20024;-71
2022/07/05 10:50:44;;;;;;;263.10;33.83;;;;;;;;;;4900347;29;20031;-71
2022/07/05 10:53:10;;;;;;;350.90;46.00;;;;;;;;;;4917561;29;20028;-70
2022/07/05 10:55:47;;;;;;;300.77;37.63;;;;;;;;;;4917749;29;20055;-69
2022/07/05 10:58:16;;;;;;;61.30;11.10;;;;;;;;;;4917528;29;20047;-68
2022/07/05 11:00:43;;;;;;;49.55;10.45;;;;;;;;;;4917262;29;20460;-68
2022/07/05 11:03:28;;;;;;;50.70;10.18;;;;;;;;;;4917292;29;20040;-68
2022/07/05 11:05:54;;;;;;;168.63;25.52;;;;;;;;;;4917311;29;20066;-71
2022/07/05 11:08:20;;;;;;;171.38;28.42;;;;;;;;;;4916913;29;20052;-69
2022/07/05 11:11:05;;;;;;;190.32;29.13;;;;;;;;;;4916878;29;20028;-69
2022/07/05 11:13:43;;;;;;;158.52;23.95;;;;;;;;;;4916943;29;20095;-70
2022/07/05 11:16:25;;;;;;;120.97;21.00;;;;;;;;;;4917038;29;20127;-67
2022/07/05 11:18:52;;;;;;;107.47;19.38;;;;;;;;;;4917226;29;20051;-69
2022/07/05 11:21:22;;;;;;;78.07;14.60;;;;;;;;;;4916818;29;20369;-68
2022/07/05 11:23:48;;;;;;;69.88;13.35;;;;;;;;;;4899507;29;20036;-65
2022/07/05 11:26:16;;;;;;;60.45;12.27;;;;;;;;;;4917133;29;20028;-60
2022/07/05 11:28:43;;;;;;;68.03;12.98;;;;;;;;;;4917087;29;20385;-60
2022/07/05 11:31:09;;;;;;;37.85;9.07;;;;;;;;;;4916751;29;20028;-61
2022/07/05 11:33:39;;;;;;;53.88;9.40;;;;;;;;;;4916902;29;20154;-61
2022/07/05 11:36:07;;;;;;;77.07;12.07;;;;;;;;;;4916407;29;20044;-61
2022/07/05 11:38:33;;;;;;;97.78;13.98;;;;;;;;;;4916503;29;20397;-60
2022/07/05 11:41:14;;;;;;;41.42;9.63;;;;;;;;;;4916588;29;20051;-61
2022/07/05 11:43:42;;;;;;;58.25;11.38;;;;;;;;;;4916421;29;20029;-60
2022/07/05 11:46:08;;;;;;;46.47;11.35;;;;;;;;;;4916618;29;20036;-61
2022/07/05 11:48:34;;;;;;;47.85;12.50;;;;;;;;;;4916894;29;20035;-62
2022/07/05 11:51:12;;;;;;;173.23;26.52;;;;;;;;;;4916357;29;20032;-60
2022/07/05 11:53:41;;;;;;;229.25;34.60;;;;;;;;;;4916717;29;20040;-60
2022/07/05 11:56:07;;;;;;;176.43;27.90;;;;;;;;;;4916419;29;20034;-65
2022/07/05 11:58:33;;;;;;;53.88;11.90;;;;;;;;;;4916732;29;20099;-62
2022/07/05 12:01:01;;;;;;;112.30;22.05;;;;;;;;;;4915622;29;20032;-61
2022/07/05 12:03:28;;;;;;;82.50;15.50;;;;;;;;;;4916216;29;20058;-61
2022/07/05 12:05:54;;;;;;;32.05;10.23;;;;;;;;;;4916112;29;20548;-61
2022/07/05 12:08:21;;;;;;;82.20;16.52;;;;;;;;;;4915966;29;20388;-60
2022/07/05 12:13:32;;;;;;;78.47;15.48;;;;;;;;;;4915023;29;20408;-57
2022/07/05 12:16:01;;;;;;;33.03;10.73;;;;;;;;;;4915909;29;20041;-60
2022/07/05 12:18:27;;;;;;;22.52;7.50;;;;;;;;;;4916199;29;20028;-59
2022/07/05 12:20:53;;;;;;;27.77;8.80;;;;;;;;;;4916077;29;20084;-60
2022/07/05 12:23:26;;;;;;;20.88;7.80;;;;;;;;;;4915456;29;20044;-60
2022/07/05 12:25:52;;;;;;;24.60;8.43;;;;;;;;;;4916158;29;20028;-60
2022/07/05 12:28:18;;;;;;;15.05;7.05;;;;;;;;;;4916141;29;20036;-61
2022/07/05 12:30:44;;;;;;;17.35;7.60;;;;;;;;;;4915952;29;20043;-59
2022/07/05 12:33:12;;;;;;;31.30;8.93;;;;;;;;;;4915842;29;20021;-60
2022/07/05 12:35:41;;;;;;;16.77;7.10;;;;;;;;;;4915674;29;20051;-60
2022/07/05 12:38:08;;;;;;;18.45;7.40;;;;;;;;;;4915627;29;20024;-66
2022/07/05 12:40:35;;;;;;;43.30;8.63;;;;;;;;;;4915934;29;20040;-63
2022/07/05 12:43:19;;;;;;;24.30;8.20;;;;;;;;;;4915406;29;20176;-60
2022/07/05 12:46:05;;;;;;;41.67;8.65;;;;;;;;;;4915559;29;20488;-73
2022/07/05 12:48:35;;;;;;;17.65;6.82;;;;;;;;;;4915519;29;20043;-61
2022/07/05 12:51:02;;;;;;;23.95;7.32;;;;;;;;;;4924991;29;20035;-60
2022/07/05 12:58:59;;;;;;;11.95;6.60;;;;;;;;;;4930738;29;20038;-61
2022/07/05 13:01:26;;;;;;;13.15;6.70;;;;;;;;;;4933511;29;20035;-61
2022/07/05 13:03:59;;;;;;;16.13;6.78;;;;;;;;;;4933438;29;20032;-60
2022/07/05 13:06:46;;;;;;;14.20;6.60;;;;;;;;;;4933578;29;20031;-62
2022/07/05 13:09:12;;;;;;;10.77;6.60;;;;;;;;;;4933416;29;20031;-60
2022/07/05 13:11:39;;;;;;;9.77;6.75;;;;;;;;;;4933674;29;20032;-60
2022/07/05 13:14:05;;;;;;;19.73;7.95;;;;;;;;;;4931800;29;20396;-58
2022/07/05 13:16:31;;;;;;;42.45;9.13;;;;;;;;;;4925645;29;20046;-59
2022/07/05 13:19:08;;;;;;;26.33;7.68;;;;;;;;;;4933635;29;20468;-59
2022/07/05 13:21:34;;;;;;;17.73;6.78;;;;;;;;;;4933393;29;20032;-59
2022/07/05 13:24:00;;;;;;;24.42;8.00;;;;;;;;;;4933508;29;20035;-62
2022/07/05 13:26:26;;;;;;;13.85;7.38;;;;;;;;;;4933632;29;20035;-59
2022/07/05 13:28:52;;;;;;;11.48;6.97;;;;;;;;;;4933933;29;20085;-60
2022/07/05 13:31:18;;;;;;;22.60;7.68;;;;;;;;;;4933786;29;20543;-60
2022/07/05 13:33:46;;;;;;;16.33;6.55;;;;;;;;;;4936362;29;20032;-63
2022/07/05 13:36:12;;;;;;;23.50;6.80;;;;;;;;;;4939790;29;20032;-63
2022/07/05 13:38:38;;;;;;;13.55;6.68;;;;;;;;;;4939990;29;20083;-62
2022/07/05 13:41:04;;;;;;;13.88;7.07;;;;;;;;;;4940188;29;20028;-63
2022/07/05 13:43:30;;;;;;;26.27;7.85;;;;;;;;;;4940136;29;20068;-62
2022/07/05 13:45:56;;;;;;;32.00;9.38;;;;;;;;;;4940268;29;20063;-61
2022/07/05 13:48:22;;;;;;;31.45;9.20;;;;;;;;;;4934846;29;20070;-62
2022/07/05 13:50:48;;;;;;;23.40;8.20;;;;;;;;;;4939135;29;20087;-61
2022/07/05 13:53:14;;;;;;;27.15;8.35;;;;;;;;;;4939328;29;20028;-62
2022/07/05 13:55:40;;;;;;;26.83;9.27;;;;;;;;;;4924003;29;20563;-62
2022/07/05 13:58:06;;;;;;;14.80;7.32;;;;;;;;;;4939575;29;20027;-63
2022/07/05 14:00:32;;;;;;;13.95;7.00;;;;;;;;;;4939497;29;20035;-61
2022/07/05 14:02:58;;;;;;;10.00;6.00;;;;;;;;;;4939498;29;20123;-61
2022/07/05 14:05:24;;;;;;;8.95;6.05;;;;;;;;;;4939554;29;20043;-61
2022/07/05 14:07:50;;;;;;;10.88;6.63;;;;;;;;;;4939489;29;20035;-60
2022/07/05 14:10:16;;;;;;;16.13;7.00;;;;;;;;;;4939372;29;20036;-61
2022/07/05 14:12:42;;;;;;;12.40;6.43;;;;;;;;;;4939540;29;20038;-61
2022/07/05 14:15:09;;;;;;;13.70;7.22;;;;;;;;;;4938946;29;20517;-61
2022/07/05 14:17:35;;;;;;;15.10;6.55;;;;;;;;;;4931798;29;20095;-61
2022/07/05 14:20:01;;;;;;;13.10;6.00;;;;;;;;;;4939641;29;20371;-61
2022/07/05 14:22:27;;;;;;;11.20;6.20;;;;;;;;;;4939632;29;20039;-61
2022/07/05 14:24:53;;;;;;;12.15;6.30;;;;;;;;;;4940031;29;20491;-62
2022/07/05 14:27:19;;;;;;;12.57;6.13;;;;;;;;;;4939914;29;20079;-64
2022/07/05 14:29:46;;;;;;;9.80;6.10;;;;;;;;;;4939897;29;20032;-64
2022/07/05 14:32:12;;;;;;;7.95;6.38;;;;;;;;;;4939741;29;20484;-64
2022/07/05 14:34:38;;;;;;;10.77;6.18;;;;;;;;;;4939805;29;20028;-61
2022/07/05 14:37:04;;;;;;;11.88;6.65;;;;;;;;;;4939539;29;20028;-61
2022/07/05 14:39:30;;;;;;;12.35;6.47;;;;;;;;;;4939745;29;20480;-63
2022/07/05 14:41:56;;;;;;;10.00;5.82;;;;;;;;;;4939501;29;20054;-62
2022/07/05 14:44:22;;;;;;;9.32;5.43;;;;;;;;;;4939436;29;20055;-63
2022/07/05 14:46:48;;;;;;;11.80;5.38;;;;;;;;;;4935971;29;20099;-61
2022/07/05 14:49:14;;;;;;;11.07;6.05;;;;;;;;;;4936438;29;20023;-61
2022/07/05 14:51:40;;;;;;;9.40;5.03;;;;;;;;;;4936490;29;20023;-61
2022/07/05 14:54:06;;;;;;;11.50;5.30;;;;;;;;;;4936632;29;20107;-62
2022/07/05 14:56:32;;;;;;;8.77;5.00;;;;;;;;;;4936579;29;20027;-61
2022/07/05 14:58:58;;;;;;;10.35;5.47;;;;;;;;;;4936469;29;20079;-61
2022/07/05 15:01:24;;;;;;;10.60;5.20;;;;;;;;;;4936490;29;20044;-61
2022/07/05 15:03:50;;;;;;;7.57;5.43;;;;;;;;;;4936584;29;20111;-61
2022/07/05 15:06:16;;;;;;;9.65;5.10;;;;;;;;;;4936302;29;20039;-61
2022/07/05 15:08:42;;;;;;;9.93;5.05;;;;;;;;;;4935790;29;20032;-61
2022/07/05 15:11:08;;;;;;;8.60;4.95;;;;;;;;;;4918541;29;20373;-61
2022/07/05 15:13:35;;;;;;;9.75;5.10;;;;;;;;;;4935835;29;20139;-61
2022/07/05 15:16:01;;;;;;;14.95;5.53;;;;;;;;;;4936103;29;20074;-60
2022/07/05 15:18:27;;;;;;;11.13;5.15;;;;;;;;;;4936093;29;20020;-60
2022/07/05 15:20:53;;;;;;;14.50;5.28;;;;;;;;;;4936313;29;20064;-63
2022/07/05 15:23:27;;;;;;;10.68;5.03;;;;;;;;;;4936066;29;20480;-62
2022/07/05 15:25:54;;;;;;;11.48;5.40;;;;;;;;;;4935995;29;20028;-62
2022/07/05 15:28:21;;;;;;;15.65;4.97;;;;;;;;;;4936097;29;20028;-59
2022/07/05 15:30:47;;;;;;;10.60;4.20;;;;;;;;;;4935813;29;20055;-62
2022/07/05 15:33:13;;;;;;;16.08;5.28;;;;;;;;;;4935933;29;20485;-63
2022/07/05 15:35:39;;;;;;;14.25;4.07;;;;;;;;;;4935602;29;20495;-62
2022/07/05 15:38:05;;;;;;;15.65;4.15;;;;;;;;;;4931977;29;20511;-61
2022/07/05 15:40:31;;;;;;;16.67;4.28;;;;;;;;;;4923924;29;20788;-62
2022/07/05 15:42:57;;;;;;;14.15;3.83;;;;;;;;;;4922658;29;20499;-61
2022/07/05 15:45:23;;;;;;;16.50;3.60;;;;;;;;;;4923590;29;20034;-59
2022/07/05 15:47:49;;;;;;;19.25;3.90;;;;;;;;;;4925593;29;20039;-63
2022/07/05 15:50:15;;;;;;;20.23;3.35;;;;;;;;;;4916518;29;20050;-61
2022/07/05 15:52:42;;;;;;;10.82;3.55;;;;;;;;;;4916610;29;20060;-63
2022/07/05 15:55:09;;;;;;;13.57;3.40;;;;;;;;;;4916668;29;20024;-61
2022/07/05 15:57:35;;;;;;;16.90;3.78;;;;;;;;;;4915204;29;20036;-62
2022/07/05 16:00:01;;;;;;;9.57;3.97;;;;;;;;;;4916633;29;20119;-67
2022/07/05 16:02:27;;;;;;;19.77;4.32;;;;;;;;;;4916220;29;20044;-62
2022/07/05 16:04:53;;;;;;;18.45;4.18;;;;;;;;;;4916374;29;20036;-62
2022/07/05 16:07:19;;;;;;;17.52;3.70;;;;;;;;;;4916162;29;20040;-62
2022/07/05 16:09:49;;;;;;;13.90;3.65;;;;;;;;;;4916282;29;20132;-62
2022/07/05 16:12:16;;;;;;;10.00;3.20;;;;;;;;;;4916158;29;20028;-60
2022/07/05 16:14:42;;;;;;;9.60;3.20;;;;;;;;;;4915878;29;20111;-60
2022/07/05 16:17:08;;;;;;;15.18;3.70;;;;;;;;;;4916091;29;20038;-60
2022/07/05 16:19:34;;;;;;;13.20;3.75;;;;;;;;;;4916154;29;20060;-60
2022/07/05 16:22:00;;;;;;;14.20;4.28;;;;;;;;;;4915990;29;20039;-60
2022/07/05 16:24:27;;;;;;;14.73;3.85;;;;;;;;;;4916126;29;20550;-60
2022/07/05 16:26:53;;;;;;;17.80;3.70;;;;;;;;;;4916028;29;20032;-62
2022/07/05 16:29:19;;;;;;;11.98;4.05;;;;;;;;;;4915881;29;20033;-60
2022/07/05 16:31:45;;;;;;;14.57;3.85;;;;;;;;;;4915295;29;20036;-60
2022/07/05 16:34:11;;;;;;;12.80;3.50;;;;;;;;;;4915900;29;20499;-60
2022/07/05 16:36:37;;;;;;;15.38;4.00;;;;;;;;;;4915328;29;20043;-60
2022/07/05 16:39:04;;;;;;;14.45;4.05;;;;;;;;;;4915508;29;20039;-60
2022/07/05 16:41:30;;;;;;;14.80;3.72;;;;;;;;;;4915355;29;20028;-62
2022/07/05 16:43:56;;;;;;;13.35;4.30;;;;;;;;;;4915395;29;20036;-61
2022/07/05 16:46:23;;;;;;;10.35;4.03;;;;;;;;;;4915412;29;20152;-60
2022/07/05 16:48:49;;;;;;;18.15;4.47;;;;;;;;;;4915214;29;20028;-60
2022/07/05 16:51:19;;;;;;;9.93;4.03;;;;;;;;;;4915291;29;20032;-60
2022/07/05 16:53:47;;;;;;;12.13;3.72;;;;;;;;;;4915278;29;20119;-60
2022/07/05 16:56:14;;;;;;;13.05;3.80;;;;;;;;;;4914316;29;20346;-60
2022/07/05 16:58:44;;;;;;;14.05;4.18;;;;;;;;;;4915069;29;20115;-61
2022/07/05 17:01:11;;;;;;;8.32;3.55;;;;;;;;;;4914984;29;20031;-60
2022/07/05 17:03:40;;;;;;;14.63;3.72;;;;;;;;;;4915311;29;20035;-60
2022/07/05 17:06:06;;;;;;;11.52;3.70;;;;;;;;;;4915024;29;20036;-60
2022/07/05 17:08:33;;;;;;;8.95;4.00;;;;;;;;;;4914602;29;20063;-63
2022/07/05 17:11:00;;;;;;;14.75;4.15;;;;;;;;;;4915517;29;20107;-60
2022/07/05 17:13:26;;;;;;;21.17;5.38;;;;;;;;;;4915236;29;20040;-59
2022/07/05 17:15:52;;;;;;;14.35;5.82;;;;;;;;;;4927228;29;20077;-61
2022/07/05 17:18:18;;;;;;;13.32;7.22;;;;;;;;;;4933653;29;20039;-60
2022/07/05 17:20:44;;;;;;;14.38;7.47;;;;;;;;;;4934058;29;20031;-61
2022/07/05 17:23:11;;;;;;;14.48;7.90;;;;;;;;;;4933524;29;20035;-61
2022/07/05 17:25:37;;;;;;;15.43;8.20;;;;;;;;;;4933847;29;20153;-61
2022/07/05 17:28:03;;;;;;;14.07;7.50;;;;;;;;;;4933604;29;20508;-60
2022/07/05 17:30:29;;;;;;;12.18;7.80;;;;;;;;;;4933750;29;20098;-62
2022/07/05 17:32:55;;;;;;;15.93;8.98;;;;;;;;;;4933550;29;20484;-61
2022/07/05 17:35:21;;;;;;;13.05;8.02;;;;;;;;;;4933692;29;20042;-61
2022/07/05 17:37:47;;;;;;;13.57;7.40;;;;;;;;;;4933194;29;20034;-59
2022/07/05 17:40:13;;;;;;;11.63;7.55;;;;;;;;;;4933463;29;20028;-61
2022/07/05 17:42:39;;;;;;;12.82;7.90;;;;;;;;;;4933419;29;20134;-61
2022/07/05 17:45:05;;;;;;;14.32;8.15;;;;;;;;;;4925574;29;20032;-61
2022/07/05 17:47:32;;;;;;;15.27;9.65;;;;;;;;;;4933055;29;20046;-60
2022/07/05 17:49:58;;;;;;;16.38;10.05;;;;;;;;;;4933454;29;20028;-61
2022/07/05 17:52:24;;;;;;;16.85;11.13;;;;;;;;;;4933381;29;20027;-61
2022/07/05 17:54:50;;;;;;;19.88;10.88;;;;;;;;;;4933239;29;20042;-60
2022/07/05 17:57:16;;;;;;;24.17;11.00;;;;;;;;;;4933158;29;20031;-62
2022/07/05 17:59:42;;;;;;;21.35;12.27;;;;;;;;;;4933433;29;20035;-59
2022/07/05 18:02:08;;;;;;;17.08;11.23;;;;;;;;;;4933144;29;20044;-65
2022/07/05 18:04:34;;;;;;;18.58;10.65;;;;;;;;;;4933500;29;20036;-60
2022/07/05 18:07:00;;;;;;;19.98;11.93;;;;;;;;;;4933073;29;20383;-62
2022/07/05 18:09:26;;;;;;;16.65;10.55;;;;;;;;;;4929559;29;20031;-65
2022/07/05 18:11:52;;;;;;;15.82;10.20;;;;;;;;;;4930499;29;20151;-60
2022/07/05 18:14:18;;;;;;;17.20;10.35;;;;;;;;;;4922157;29;20074;-60
2022/07/05 18:16:44;;;;;;;13.50;8.98;;;;;;;;;;4929870;29;20070;-61
2022/07/05 18:19:10;;;;;;;19.33;9.05;;;;;;;;;;4933255;29;20120;-61
2022/07/05 18:21:37;;;;;;;17.38;9.27;;;;;;;;;;4936191;29;20100;-60
2022/07/05 18:24:03;;;;;;;19.40;8.57;;;;;;;;;;4927692;29;20058;-60
2022/07/05 18:26:29;;;;;;;16.83;8.45;;;;;;;;;;4926971;29;20051;-61
2022/07/05 18:28:55;;;;;;;18.10;8.27;;;;;;;;;;4920074;29;20431;-59
2022/07/05 18:31:23;;;;;;;17.55;8.27;;;;;;;;;;4938288;29;20032;-63
2022/07/05 18:33:49;;;;;;;16.27;8.35;;;;;;;;;;4921356;29;20031;-59
2022/07/05 18:36:15;;;;;;;18.02;9.48;;;;;;;;;;4936944;29;20498;-63
2022/07/05 18:38:41;;;;;;;16.80;9.20;;;;;;;;;;4936853;29;20345;-64
2022/07/05 18:41:07;;;;;;;15.70;8.90;;;;;;;;;;4936611;29;20020;-63
2022/07/05 18:43:34;;;;;;;14.75;9.00;;;;;;;;;;4934736;29;20051;-61
2022/07/05 18:46:00;;;;;;;19.63;11.25;;;;;;;;;;4936627;29;20032;-60
2022/07/05 18:48:27;;;;;;;18.52;12.00;;;;;;;;;;4936399;29;20039;-66
2022/07/05 18:50:53;;;;;;;18.50;11.75;;;;;;;;;;4936471;29;20090;-63
2022/07/05 18:53:20;;;;;;;19.58;9.57;;;;;;;;;;4936273;29;20032;-64
2022/07/05 18:55:48;;;;;;;15.93;9.88;;;;;;;;;;4914593;29;20038;-61
2022/07/05 18:58:16;;;;;;;15.63;8.60;;;;;;;;;;4909483;29;20042;-63
2022/07/05 19:00:42;;;;;;;12.63;7.68;;;;;;;;;;4938211;29;20028;-64
2022/07/05 19:03:09;;;;;;;12.30;7.18;;;;;;;;;;4922700;29;20388;-66
2022/07/05 19:13:40;;;;;;;17.90;7.40;;;;;;;;;;4951493;29;20079;-61
2022/07/05 19:14:06;;;;;;;11.50;7.40;;;;;;;;;;4952114;28;20111;-62
2022/07/05 19:16:34;;;;;;;12.85;7.50;;;;;;;;;;4941841;29;20531;-60
2022/07/05 19:19:00;;;;;;;12.40;8.32;;;;;;;;;;4935670;29;20492;-63
2022/07/05 19:21:26;;;;;;;12.27;7.75;;;;;;;;;;4935765;29;20074;-60
2022/07/05 19:23:52;;;;;;;11.93;8.38;;;;;;;;;;4935788;29;20039;-59
2022/07/05 19:26:18;;;;;;;13.15;8.65;;;;;;;;;;4928398;29;20028;-60
2022/07/05 19:28:44;;;;;;;14.60;8.80;;;;;;;;;;4935663;29;20035;-60
2022/07/05 19:31:10;;;;;;;12.07;8.13;;;;;;;;;;4935333;29;20051;-60
2022/07/05 19:33:36;;;;;;;13.50;8.60;;;;;;;;;;4935503;29;20032;-59
2022/07/05 19:36:03;;;;;;;12.60;7.60;;;;;;;;;;4935697;29;20034;-59
2022/07/05 19:38:29;;;;;;;11.48;8.15;;;;;;;;;;4935136;29;20151;-60
2022/07/05 19:40:56;;;;;;;10.23;6.45;;;;;;;;;;4926655;29;20031;-60
2022/07/05 19:43:25;;;;;;;13.52;7.35;;;;;;;;;;4928596;29;20044;-60
2022/07/05 19:45:51;;;;;;;12.07;7.68;;;;;;;;;;4935599;29;20026;-61
2022/07/05 19:48:17;;;;;;;12.25;8.05;;;;;;;;;;4935158;29;20435;-61
2022/07/05 19:50:43;;;;;;;10.70;5.57;;;;;;;;;;4935589;29;20023;-62
2022/07/05 19:53:09;;;;;;;8.50;5.65;;;;;;;;;;4935238;29;20086;-61
2022/07/05 19:55:35;;;;;;;9.68;4.80;;;;;;;;;;4929850;29;20024;-66
2022/07/05 19:58:01;;;;;;;8.77;5.30;;;;;;;;;;4933682;29;20102;-61
2022/07/05 20:00:27;;;;;;;9.10;4.72;;;;;;;;;;4935513;29;20050;-60